sensor_id;sensor_type;location;lat;lon;timestamp;pressure;altitude;pressure_sealevel;temperature;humidity
52975;BME280;38839;45.186;5.720;2023-03-13T00:01:26;99266.44;;;12.01;69.18
52975;BME280;38839;45.186;5.720;2023-03-13T00:03:52;99263.00;;;11.96;68.95
52975;BME280;38839;45.186;5.720;2023-03-13T00:06:20;99270.00;;;11.91;68.55
52975;BME280;38839;45.186;5.720;2023-03-13T00:08:47;99259.53;;;11.91;68.17
52975;BME280;38839;45.186;5.720;2023-03-13T00:11:14;99266.53;;;11.92;67.92
52975;BME280;38839;45.186;5.720;2023-03-13T00:13:40;99263.91;;;11.94;67.97
52975;BME280;38839;45.186;5.720;2023-03-13T00:16:08;99262.09;;;11.97;67.76
52975;BME280;38839;45.186;5.720;2023-03-13T00:18:33;99263.81;;;12.01;67.59
52975;BME280;38839;45.186;5.720;2023-03-13T00:21:00;99262.97;;;11.99;67.71
52975;BME280;38839;45.186;5.720;2023-03-13T00:23:26;99259.50;;;11.97;67.94
52975;BME280;38839;45.186;5.720;2023-03-13T00:26:01;99262.97;;;12.01;68.02
52975;BME280;38839;45.186;5.720;2023-03-13T00:28:28;99262.16;;;11.96;68.00
52975;BME280;38839;45.186;5.720;2023-03-13T00:31:30;99254.31;;;11.94;67.91
52975;BME280;38839;45.186;5.720;2023-03-13T00:34:00;99254.25;;;12.00;68.03
52975;BME280;38839;45.186;5.720;2023-03-13T00:36:31;99261.22;;;12.01;68.28
52975;BME280;38839;45.186;5.720;2023-03-13T00:38:58;99256.88;;;12.00;68.34
52975;BME280;38839;45.186;5.720;2023-03-13T00:41:32;99254.22;;;12.08;68.31
52975;BME280;38839;45.186;5.720;2023-03-13T00:43:58;99253.34;;;12.06;68.28
52975;BME280;38839;45.186;5.720;2023-03-13T00:46:26;99249.84;;;12.10;68.30
52975;BME280;38839;45.186;5.720;2023-03-13T00:48:52;99235.00;;;12.07;67.85
52975;BME280;38839;45.186;5.720;2023-03-13T00:51:19;99241.94;;;12.13;67.68
52975;BME280;38839;45.186;5.720;2023-03-13T00:53:45;99241.09;;;12.13;67.61
52975;BME280;38839;45.186;5.720;2023-03-13T00:56:15;99245.41;;;12.15;67.19
52975;BME280;38839;45.186;5.720;2023-03-13T00:58:43;99241.84;;;12.24;67.03
52975;BME280;38839;45.186;5.720;2023-03-13T01:01:16;99243.59;;;12.26;66.47
52975;BME280;38839;45.186;5.720;2023-03-13T01:03:44;99246.22;;;12.25;66.44
52975;BME280;38839;45.186;5.720;2023-03-13T01:06:13;99250.59;;;12.24;66.32
52975;BME280;38839;45.186;5.720;2023-03-13T01:08:38;99247.06;;;12.28;66.23
52975;BME280;38839;45.186;5.720;2023-03-13T01:11:10;99235.72;;;12.30;65.84
52975;BME280;38839;45.186;5.720;2023-03-13T01:13:36;99232.28;;;12.21;65.98
52975;BME280;38839;45.186;5.720;2023-03-13T01:16:10;99229.75;;;12.14;66.16
52975;BME280;38839;45.186;5.720;2023-03-13T01:18:38;99227.16;;;12.07;66.68
52975;BME280;38839;45.186;5.720;2023-03-13T01:21:04;99230.69;;;12.06;66.69
52975;BME280;38839;45.186;5.720;2023-03-13T01:23:30;99233.31;;;12.03;66.83
52975;BME280;38839;45.186;5.720;2023-03-13T01:25:56;99229.84;;;12.01;67.54
52975;BME280;38839;45.186;5.720;2023-03-13T01:28:23;99230.69;;;12.05;67.40
52975;BME280;38839;45.186;5.720;2023-03-13T01:30:49;99243.00;;;11.91;68.31
52975;BME280;38839;45.186;5.720;2023-03-13T01:33:15;99240.34;;;11.98;68.44
52975;BME280;38839;45.186;5.720;2023-03-13T01:35:40;99236.84;;;11.96;68.72
52975;BME280;38839;45.186;5.720;2023-03-13T01:38:06;99235.09;;;11.95;69.04
52975;BME280;38839;45.186;5.720;2023-03-13T01:40:41;99239.56;;;11.75;71.15
52975;BME280;38839;45.186;5.720;2023-03-13T01:43:22;99231.03;;;11.50;73.49
52975;BME280;38839;45.186;5.720;2023-03-13T01:48:33;99226.69;;;11.44;72.89
52975;BME280;38839;45.186;5.720;2023-03-13T01:51:02;99236.31;;;11.36;73.76
52975;BME280;38839;45.186;5.720;2023-03-13T01:53:30;99225.81;;;11.51;72.44
52975;BME280;38839;45.186;5.720;2023-03-13T01:55:59;99224.88;;;11.63;72.60
52975;BME280;38839;45.186;5.720;2023-03-13T01:58:28;99226.53;;;11.72;73.16
52975;BME280;38839;45.186;5.720;2023-03-13T02:00:54;99224.78;;;11.71;72.28
52975;BME280;38839;45.186;5.720;2023-03-13T02:03:20;99228.25;;;11.73;72.48
52975;BME280;38839;45.186;5.720;2023-03-13T02:05:47;99222.22;;;11.69;72.84
52975;BME280;38839;45.186;5.720;2023-03-13T02:08:18;99222.25;;;11.58;73.31
52975;BME280;38839;45.186;5.720;2023-03-13T02:11:15;99224.00;;;11.56;74.33
52975;BME280;38839;45.186;5.720;2023-03-13T02:13:43;99224.03;;;11.53;73.72
52975;BME280;38839;45.186;5.720;2023-03-13T02:16:09;99214.50;;;11.51;73.74
52975;BME280;38839;45.186;5.720;2023-03-13T02:18:36;99210.13;;;11.50;73.47
52975;BME280;38839;45.186;5.720;2023-03-13T02:21:31;99209.25;;;11.49;74.24
52975;BME280;38839;45.186;5.720;2023-03-13T02:27:10;99212.81;;;11.39;74.84
52975;BME280;38839;45.186;5.720;2023-03-13T02:29:36;99214.53;;;11.43;74.18
52975;BME280;38839;45.186;5.720;2023-03-13T02:32:01;99217.16;;;11.34;74.69
52975;BME280;38839;45.186;5.720;2023-03-13T02:34:31;99211.91;;;11.44;74.17
52975;BME280;38839;45.186;5.720;2023-03-13T02:36:59;99211.06;;;11.41;74.48
52975;BME280;38839;45.186;5.720;2023-03-13T02:39:25;99204.13;;;11.35;74.75
52975;BME280;38839;45.186;5.720;2023-03-13T02:41:52;99193.66;;;11.34;74.87
52975;BME280;38839;45.186;5.720;2023-03-13T02:44:18;99189.34;;;11.34;74.79
52975;BME280;38839;45.186;5.720;2023-03-13T02:46:49;99186.75;;;11.25;75.18
52975;BME280;38839;45.186;5.720;2023-03-13T02:51:44;99191.97;;;11.23;75.79
52975;BME280;38839;45.186;5.720;2023-03-13T02:54:18;99186.75;;;11.26;75.82
52975;BME280;38839;45.186;5.720;2023-03-13T02:56:47;99186.78;;;11.22;75.67
52975;BME280;38839;45.186;5.720;2023-03-13T02:59:14;99178.06;;;11.21;76.30
52975;BME280;38839;45.186;5.720;2023-03-13T03:01:40;99170.19;;;11.27;75.89
52975;BME280;38839;45.186;5.720;2023-03-13T03:04:05;99165.88;;;11.28;75.85
52975;BME280;38839;45.186;5.720;2023-03-13T03:06:31;99169.34;;;11.25;76.46
52975;BME280;38839;45.186;5.720;2023-03-13T03:08:56;99172.81;;;11.27;76.33
52975;BME280;38839;45.186;5.720;2023-03-13T03:11:22;99171.91;;;11.33;76.19
52975;BME280;38839;45.186;5.720;2023-03-13T03:13:47;99169.38;;;11.19;76.96
52975;BME280;38839;45.186;5.720;2023-03-13T03:16:14;99171.94;;;11.27;77.11
52975;BME280;38839;45.186;5.720;2023-03-13T03:18:42;99172.84;;;11.21;76.95
52975;BME280;38839;45.186;5.720;2023-03-13T03:21:08;99166.81;;;11.12;77.53
52975;BME280;38839;45.186;5.720;2023-03-13T03:23:34;99177.25;;;11.08;77.77
52975;BME280;38839;45.186;5.720;2023-03-13T03:26:00;99181.69;;;10.96;78.24
52975;BME280;38839;45.186;5.720;2023-03-13T03:28:26;99179.06;;;10.93;78.37
52975;BME280;38839;45.186;5.720;2023-03-13T03:30:52;99187.75;;;10.95;79.09
52975;BME280;38839;45.186;5.720;2023-03-13T03:33:19;99186.94;;;10.88;79.57
52975;BME280;38839;45.186;5.720;2023-03-13T03:35:45;99191.31;;;10.74;80.09
52975;BME280;38839;45.186;5.720;2023-03-13T03:38:10;99191.41;;;10.46;80.39
52975;BME280;38839;45.186;5.720;2023-03-13T03:40:35;99187.03;;;10.50;80.13
52975;BME280;38839;45.186;5.720;2023-03-13T03:43:01;99186.19;;;10.41;79.96
52975;BME280;38839;45.186;5.720;2023-03-13T03:45:26;99174.84;;;10.58;79.89
52975;BME280;38839;45.186;5.720;2023-03-13T03:47:51;99174.78;;;10.76;79.35
52975;BME280;38839;45.186;5.720;2023-03-13T03:50:17;99186.94;;;10.83;79.04
52975;BME280;38839;45.186;5.720;2023-03-13T03:52:42;99183.44;;;10.86;79.30
52975;BME280;38839;45.186;5.720;2023-03-13T03:55:08;99181.69;;;10.93;78.44
52975;BME280;38839;45.186;5.720;2023-03-13T03:57:33;99178.19;;;10.97;78.71
52975;BME280;38839;45.186;5.720;2023-03-13T03:59:59;99181.72;;;10.83;79.54
52975;BME280;38839;45.186;5.720;2023-03-13T04:02:24;99169.50;;;10.95;79.17
52975;BME280;38839;45.186;5.720;2023-03-13T04:04:50;99177.31;;;10.95;79.33
52975;BME280;38839;45.186;5.720;2023-03-13T04:07:15;99178.22;;;10.87;79.33
52975;BME280;38839;45.186;5.720;2023-03-13T04:09:41;99168.69;;;10.83;79.72
52975;BME280;38839;45.186;5.720;2023-03-13T04:12:06;99173.91;;;10.85;79.38
52975;BME280;38839;45.186;5.720;2023-03-13T04:14:32;99165.19;;;10.89;78.72
52975;BME280;38839;45.186;5.720;2023-03-13T04:16:57;99161.63;;;11.01;78.24
52975;BME280;38839;45.186;5.720;2023-03-13T04:19:23;99173.00;;;10.94;78.49
52975;BME280;38839;45.186;5.720;2023-03-13T04:21:48;99173.00;;;10.87;79.12
52975;BME280;38839;45.186;5.720;2023-03-13T04:24:13;99169.50;;;10.92;78.94
52975;BME280;38839;45.186;5.720;2023-03-13T04:26:39;99166.03;;;10.86;79.33
52975;BME280;38839;45.186;5.720;2023-03-13T04:29:04;99165.28;;;10.55;80.84
52975;BME280;38839;45.186;5.720;2023-03-13T04:31:31;99160.03;;;10.67;80.19
52975;BME280;38839;45.186;5.720;2023-03-13T04:33:57;99146.06;;;10.76;80.27
52975;BME280;38839;45.186;5.720;2023-03-13T04:36:22;99159.25;;;10.38;82.13
52975;BME280;38839;45.186;5.720;2023-03-13T04:38:48;99167.97;;;10.32;82.70
52975;BME280;38839;45.186;5.720;2023-03-13T04:41:13;99158.38;;;10.33;82.35
52975;BME280;38839;45.186;5.720;2023-03-13T04:43:38;99162.69;;;10.47;81.57
52975;BME280;38839;45.186;5.720;2023-03-13T04:46:04;99166.16;;;10.56;80.66
52975;BME280;38839;45.186;5.720;2023-03-13T04:48:29;99148.72;;;10.72;79.71
52975;BME280;38839;45.186;5.720;2023-03-13T04:50:55;99158.25;;;10.76;79.09
52975;BME280;38839;45.186;5.720;2023-03-13T04:53:20;99155.66;;;10.74;78.79
52975;BME280;38839;45.186;5.720;2023-03-13T04:55:46;99153.88;;;10.85;78.13
52975;BME280;38839;45.186;5.720;2023-03-13T04:58:12;99153.00;;;10.91;77.54
52975;BME280;38839;45.186;5.720;2023-03-13T05:00:40;99138.16;;;10.95;77.45
52975;BME280;38839;45.186;5.720;2023-03-13T05:03:06;99147.78;;;10.90;76.65
52975;BME280;38839;45.186;5.720;2023-03-13T05:05:34;99154.69;;;10.98;76.84
52975;BME280;38839;45.186;5.720;2023-03-13T05:08:00;99148.56;;;11.04;76.67
52975;BME280;38839;45.186;5.720;2023-03-13T05:10:26;99133.81;;;11.01;76.77
52975;BME280;38839;45.186;5.720;2023-03-13T05:12:52;99134.66;;;11.02;76.84
52975;BME280;38839;45.186;5.720;2023-03-13T05:15:17;99139.06;;;10.95;76.54
52975;BME280;38839;45.186;5.720;2023-03-13T05:17:43;99134.72;;;10.90;77.12
52975;BME280;38839;45.186;5.720;2023-03-13T05:20:08;99128.66;;;10.89;76.98
52975;BME280;38839;45.186;5.720;2023-03-13T05:22:36;99124.31;;;10.83;77.44
52975;BME280;38839;45.186;5.720;2023-03-13T05:25:01;99118.28;;;10.71;77.96
52975;BME280;38839;45.186;5.720;2023-03-13T05:27:27;99123.50;;;10.67;78.18
52975;BME280;38839;45.186;5.720;2023-03-13T05:29:52;99124.38;;;10.62;78.07
52975;BME280;38839;45.186;5.720;2023-03-13T05:32:17;99117.44;;;10.58;78.18
52975;BME280;38839;45.186;5.720;2023-03-13T05:34:43;99104.44;;;10.53;77.87
52975;BME280;38839;45.186;5.720;2023-03-13T05:37:08;99103.56;;;10.50;77.85
52975;BME280;38839;45.186;5.720;2023-03-13T05:39:35;99102.72;;;10.41;78.03
52975;BME280;38839;45.186;5.720;2023-03-13T05:42:00;99101.00;;;10.40;77.48
52975;BME280;38839;45.186;5.720;2023-03-13T05:44:26;99096.66;;;10.39;77.45
52975;BME280;38839;45.186;5.720;2023-03-13T05:46:52;99103.63;;;10.40;77.66
52975;BME280;38839;45.186;5.720;2023-03-13T05:49:17;99099.25;;;10.41;77.72
52975;BME280;38839;45.186;5.720;2023-03-13T05:51:42;99101.88;;;10.42;77.62
52975;BME280;38839;45.186;5.720;2023-03-13T05:54:08;99101.88;;;10.44;77.64
52975;BME280;38839;45.186;5.720;2023-03-13T05:56:33;99103.59;;;10.43;77.25
52975;BME280;38839;45.186;5.720;2023-03-13T05:58:58;99101.00;;;10.39;77.61
52975;BME280;38839;45.186;5.720;2023-03-13T06:01:24;99098.41;;;10.31;77.96
52975;BME280;38839;45.186;5.720;2023-03-13T06:03:49;99088.84;;;10.22;79.04
52975;BME280;38839;45.186;5.720;2023-03-13T06:06:15;99074.09;;;10.21;78.93
52975;BME280;38839;45.186;5.720;2023-03-13T06:08:40;99074.97;;;10.13;79.62
52975;BME280;38839;45.186;5.720;2023-03-13T06:11:05;99068.91;;;10.15;79.66
52975;BME280;38839;45.186;5.720;2023-03-13T06:13:31;99077.53;;;10.37;79.06
52975;BME280;38839;45.186;5.720;2023-03-13T06:15:59;99083.59;;;10.50;78.73
52975;BME280;38839;45.186;5.720;2023-03-13T06:18:25;99090.50;;;10.60;78.26
52975;BME280;38839;45.186;5.720;2023-03-13T06:20:59;99087.84;;;10.71;77.74
52975;BME280;38839;45.186;5.720;2023-03-13T06:23:25;99079.97;;;10.74;77.67
52975;BME280;38839;45.186;5.720;2023-03-13T06:25:51;99068.66;;;10.80;77.67
52975;BME280;38839;45.186;5.720;2023-03-13T06:28:17;99073.84;;;10.89;77.14
52975;BME280;38839;45.186;5.720;2023-03-13T06:30:42;99069.44;;;10.96;76.97
52975;BME280;38839;45.186;5.720;2023-03-13T06:33:08;99062.44;;;11.05;76.57
52975;BME280;38839;45.186;5.720;2023-03-13T06:35:33;99071.75;;;11.39;75.83
52975;BME280;38839;45.186;5.720;2023-03-13T06:37:58;99061.28;;;11.42;74.93
52975;BME280;38839;45.186;5.720;2023-03-13T06:40:24;99056.09;;;11.36;74.82
52975;BME280;38839;45.186;5.720;2023-03-13T06:42:49;99063.06;;;11.34;74.62
52975;BME280;38839;45.186;5.720;2023-03-13T06:45:15;99067.41;;;11.38;74.38
52975;BME280;38839;45.186;5.720;2023-03-13T06:47:40;99057.00;;;11.33;74.44
52975;BME280;38839;45.186;5.720;2023-03-13T06:50:06;99061.34;;;11.33;74.25
52975;BME280;38839;45.186;5.720;2023-03-13T06:52:31;99053.56;;;11.28;74.49
52975;BME280;38839;45.186;5.720;2023-03-13T06:54:57;99044.78;;;11.34;74.49
52975;BME280;38839;45.186;5.720;2023-03-13T06:57:22;99055.31;;;11.26;74.69
52975;BME280;38839;45.186;5.720;2023-03-13T06:59:48;99052.72;;;11.26;74.87
52975;BME280;38839;45.186;5.720;2023-03-13T07:02:14;99057.13;;;11.18;75.12
52975;BME280;38839;45.186;5.720;2023-03-13T07:04:39;99051.28;;;10.77;77.15
52975;BME280;38839;45.186;5.720;2023-03-13T07:07:05;99060.06;;;10.61;78.20
52975;BME280;38839;45.186;5.720;2023-03-13T07:09:30;99044.44;;;10.52;78.85
52975;BME280;38839;45.186;5.720;2023-03-13T07:11:56;99029.66;;;10.57;79.08
52975;BME280;38839;45.186;5.720;2023-03-13T07:14:23;99026.94;;;10.75;78.18
52975;BME280;38839;45.186;5.720;2023-03-13T07:16:48;99035.53;;;10.90;77.81
52975;BME280;38839;45.186;5.720;2023-03-13T07:19:14;99054.59;;;11.01;77.67
52975;BME280;38839;45.186;5.720;2023-03-13T07:21:40;99049.25;;;11.21;76.68
52975;BME280;38839;45.186;5.720;2023-03-13T07:24:05;99045.59;;;11.43;75.58
52975;BME280;38839;45.186;5.720;2023-03-13T07:26:31;99043.72;;;11.56;74.83
52975;BME280;38839;45.186;5.720;2023-03-13T07:28:56;99028.97;;;11.52;74.18
52975;BME280;38839;45.186;5.720;2023-03-13T07:31:22;99036.69;;;11.67;73.92
52975;BME280;38839;45.186;5.720;2023-03-13T07:33:52;99043.47;;;11.90;73.18
52975;BME280;38839;45.186;5.720;2023-03-13T07:36:21;99040.72;;;12.01;72.46
52975;BME280;38839;45.186;5.720;2023-03-13T07:38:48;99036.34;;;12.01;72.04
52975;BME280;38839;45.186;5.720;2023-03-13T07:41:13;99043.25;;;12.08;71.40
52975;BME280;38839;45.186;5.720;2023-03-13T07:43:39;99041.44;;;12.15;71.18
52975;BME280;38839;45.186;5.720;2023-03-13T07:46:06;99044.03;;;12.18;70.83
52975;BME280;38839;45.186;5.720;2023-03-13T07:48:37;99039.66;;;12.19;70.64
52975;BME280;38839;45.186;5.720;2023-03-13T07:51:04;99020.38;;;12.27;70.27
52975;BME280;38839;45.186;5.720;2023-03-13T07:53:30;99020.22;;;12.41;69.67
52975;BME280;38839;45.186;5.720;2023-03-13T07:56:08;99009.44;;;12.63;68.46
52975;BME280;38839;45.186;5.720;2023-03-13T07:58:36;99006.44;;;12.92;67.93
52975;BME280;38839;45.186;5.720;2023-03-13T08:01:08;99013.94;;;13.12;66.83
52975;BME280;38839;45.186;5.720;2023-03-13T08:03:33;99012.06;;;13.20;66.77
52975;BME280;38839;45.186;5.720;2023-03-13T08:06:01;99012.50;;;13.52;66.04
52975;BME280;38839;45.186;5.720;2023-03-13T08:08:27;99011.31;;;13.68;65.36
52975;BME280;38839;45.186;5.720;2023-03-13T08:10:52;99014.69;;;13.75;64.51
52975;BME280;38839;45.186;5.720;2023-03-13T08:13:18;99004.22;;;13.75;63.99
52975;BME280;38839;45.186;5.720;2023-03-13T08:15:43;98997.31;;;13.67;64.76
52975;BME280;38839;45.186;5.720;2023-03-13T08:18:09;98999.19;;;13.62;64.12
52975;BME280;38839;45.186;5.720;2023-03-13T08:20:34;98987.91;;;13.57;64.23
52975;BME280;38839;45.186;5.720;2023-03-13T08:23:00;98993.19;;;13.56;64.17
52975;BME280;38839;45.186;5.720;2023-03-13T08:25:25;98982.84;;;13.46;64.59
52975;BME280;38839;45.186;5.720;2023-03-13T08:27:51;98976.69;;;13.49;64.55
52975;BME280;38839;45.186;5.720;2023-03-13T08:30:16;98973.94;;;13.57;64.55
52975;BME280;38839;45.186;5.720;2023-03-13T08:32:42;98985.56;;;13.42;64.66
52975;BME280;38839;45.186;5.720;2023-03-13T08:35:08;98982.81;;;13.50;64.41
52975;BME280;38839;45.186;5.720;2023-03-13T08:37:33;98963.53;;;13.52;64.44
52975;BME280;38839;45.186;5.720;2023-03-13T08:39:58;98962.63;;;13.53;64.66
52975;BME280;38839;45.186;5.720;2023-03-13T08:42:24;98961.75;;;13.56;64.49
52975;BME280;38839;45.186;5.720;2023-03-13T08:44:49;98960.25;;;13.41;64.89
52975;BME280;38839;45.186;5.720;2023-03-13T08:47:15;98938.78;;;13.68;64.38
52975;BME280;38839;45.186;5.720;2023-03-13T08:49:42;98937.59;;;13.85;63.96
52975;BME280;38839;45.186;5.720;2023-03-13T08:52:07;98943.06;;;13.73;64.45
52975;BME280;38839;45.186;5.720;2023-03-13T08:54:33;98933.28;;;13.82;64.18
52975;BME280;38839;45.186;5.720;2023-03-13T08:56:58;98920.34;;;13.72;64.48
52975;BME280;38839;45.186;5.720;2023-03-13T08:59:24;98908.16;;;13.71;64.68
52975;BME280;38839;45.186;5.720;2023-03-13T09:01:50;98896.75;;;13.72;64.81
52975;BME280;38839;45.186;5.720;2023-03-13T09:04:15;98895.88;;;13.73;64.84
52975;BME280;38839;45.186;5.720;2023-03-13T09:06:40;98889.09;;;13.62;65.27
52975;BME280;38839;45.186;5.720;2023-03-13T09:09:06;98885.56;;;13.63;65.57
52975;BME280;38839;45.186;5.720;2023-03-13T09:11:32;98880.63;;;13.50;65.66
52975;BME280;38839;45.186;5.720;2023-03-13T09:13:57;98877.78;;;13.59;65.68
52975;BME280;38839;45.186;5.720;2023-03-13T09:16:28;98881.59;;;13.86;65.16
52975;BME280;38839;45.186;5.720;2023-03-13T09:18:54;98871.19;;;13.83;65.06
52975;BME280;38839;45.186;5.720;2023-03-13T09:21:24;98849.44;;;13.78;65.06
52975;BME280;38839;45.186;5.720;2023-03-13T09:23:50;98837.25;;;13.77;64.99
52975;BME280;38839;45.186;5.720;2023-03-13T09:26:16;98830.09;;;13.83;64.89
52975;BME280;38839;45.186;5.720;2023-03-13T09:28:42;98831.59;;;13.95;64.58
52975;BME280;38839;45.186;5.720;2023-03-13T09:31:13;98816.75;;;13.94;64.56
52975;BME280;38839;45.186;5.720;2023-03-13T09:33:39;98818.91;;;14.16;63.93
52975;BME280;38839;45.186;5.720;2023-03-13T09:36:05;98823.03;;;14.26;63.56
52975;BME280;38839;45.186;5.720;2023-03-13T09:38:31;98807.06;;;14.35;63.18
52975;BME280;38839;45.186;5.720;2023-03-13T09:41:01;98814.38;;;14.60;62.55
52975;BME280;38839;45.186;5.720;2023-03-13T09:46:41;98815.03;;;14.68;61.94
52975;BME280;38839;45.186;5.720;2023-03-13T09:51:43;98781.13;;;14.60;62.36
52975;BME280;38839;45.186;5.720;2023-03-13T09:54:24;98783.78;;;14.59;62.46
52975;BME280;38839;45.186;5.720;2023-03-13T09:56:54;98785.66;;;14.88;61.49
52975;BME280;38839;45.186;5.720;2023-03-13T10:01:54;98768.44;;;15.40;59.51
52975;BME280;38839;45.186;5.720;2023-03-13T10:06:50;98745.59;;;15.11;59.60
52975;BME280;38839;45.186;5.720;2023-03-13T10:09:34;98741.69;;;14.62;60.85
52975;BME280;38839;45.186;5.720;2023-03-13T10:12:20;98743.91;;;15.10;59.71
52975;BME280;38839;45.186;5.720;2023-03-13T10:22:45;98728.09;;;15.71;58.25
52975;BME280;38839;45.186;5.720;2023-03-13T10:27:56;98708.03;;;15.39;57.82
52975;BME280;38839;45.186;5.720;2023-03-13T10:32:53;98694.84;;;15.68;56.89
52975;BME280;38839;45.186;5.720;2023-03-13T10:35:23;98689.72;;;15.94;56.22
52975;BME280;38839;45.186;5.720;2023-03-13T10:37:49;98688.56;;;16.02;54.99
52975;BME280;38839;45.186;5.720;2023-03-13T10:40:24;98678.41;;;16.18;53.79
52975;BME280;38839;45.186;5.720;2023-03-13T10:42:52;98678.22;;;16.23;53.54
52975;BME280;38839;45.186;5.720;2023-03-13T10:45:20;98671.75;;;16.33;53.38
52975;BME280;38839;45.186;5.720;2023-03-13T10:47:53;98671.53;;;16.39;52.14
52975;BME280;38839;45.186;5.720;2023-03-13T10:50:23;98667.66;;;16.49;53.21
52975;BME280;38839;45.186;5.720;2023-03-13T10:52:50;98639.97;;;16.63;53.02
52975;BME280;38839;45.186;5.720;2023-03-13T10:55:21;98642.88;;;16.80;53.13
52975;BME280;38839;45.186;5.720;2023-03-13T10:58:04;98641.69;;;16.64;52.59
52975;BME280;38839;45.186;5.720;2023-03-13T11:00:35;98634.31;;;16.99;52.46
52975;BME280;38839;45.186;5.720;2023-03-13T11:03:04;98635.09;;;17.24;52.00
52975;BME280;38839;45.186;5.720;2023-03-13T11:05:36;98626.09;;;17.52;51.47
52975;BME280;38839;45.186;5.720;2023-03-13T11:08:40;98614.81;;;17.70;51.57
52975;BME280;38839;45.186;5.720;2023-03-13T11:11:16;98606.53;;;17.58;51.34
52975;BME280;38839;45.186;5.720;2023-03-13T11:13:43;98607.41;;;17.58;51.24
52975;BME280;38839;45.186;5.720;2023-03-13T11:16:21;98592.34;;;17.82;50.81
52975;BME280;38839;45.186;5.720;2023-03-13T11:21:40;98579.84;;;18.28;48.89
52975;BME280;38839;45.186;5.720;2023-03-13T11:24:30;98580.09;;;18.43;48.02
52975;BME280;38839;45.186;5.720;2023-03-13T11:27:03;98573.94;;;18.63;48.40
52975;BME280;38839;45.186;5.720;2023-03-13T11:29:59;98568.63;;;18.83;47.92
52975;BME280;38839;45.186;5.720;2023-03-13T11:32:35;98559.97;;;18.99;47.77
52975;BME280;38839;45.186;5.720;2023-03-13T11:35:10;98548.47;;;19.00;47.29
52975;BME280;38839;45.186;5.720;2023-03-13T11:37:40;98528.66;;;19.08;47.18
52975;BME280;38839;45.186;5.720;2023-03-13T11:40:19;98524.00;;;19.33;46.76
52975;BME280;38839;45.186;5.720;2023-03-13T11:48:10;98507.28;;;19.49;46.26
52975;BME280;38839;45.186;5.720;2023-03-13T11:50:49;98493.16;;;19.32;45.82
52975;BME280;38839;45.186;5.720;2023-03-13T12:01:09;98452.91;;;19.61;45.40
52975;BME280;38839;45.186;5.720;2023-03-13T12:03:41;98442.63;;;19.73;45.24
52975;BME280;38839;45.186;5.720;2023-03-13T12:06:24;98427.53;;;19.92;44.53
52975;BME280;38839;45.186;5.720;2023-03-13T12:08:54;98416.97;;;20.08;44.27
52975;BME280;38839;45.186;5.720;2023-03-13T12:11:26;98412.34;;;20.12;43.47
52975;BME280;38839;45.186;5.720;2023-03-13T12:13:59;98396.50;;;20.43;43.54
52975;BME280;38839;45.186;5.720;2023-03-13T12:16:41;98389.03;;;20.34;43.09
52975;BME280;38839;45.186;5.720;2023-03-13T12:19:11;98373.25;;;20.48;43.15
52975;BME280;38839;45.186;5.720;2023-03-13T12:21:49;98364.88;;;20.56;42.83
52975;BME280;38839;45.186;5.720;2023-03-13T12:24:25;98355.41;;;20.68;42.91
52975;BME280;38839;45.186;5.720;2023-03-13T12:27:03;98343.34;;;20.78;42.94
52975;BME280;38839;45.186;5.720;2023-03-13T12:35:00;98300.19;;;20.90;42.08
52975;BME280;38839;45.186;5.720;2023-03-13T12:42:50;98289.63;;;21.64;39.47
52975;BME280;38839;45.186;5.720;2023-03-13T12:45:20;98267.44;;;22.06;38.67
52975;BME280;38839;45.186;5.720;2023-03-13T12:55:58;98231.00;;;23.28;34.58
52975;BME280;38839;45.186;5.720;2023-03-13T12:58:40;98228.97;;;23.32;34.70
52975;BME280;38839;45.186;5.720;2023-03-13T13:01:14;98212.13;;;23.32;34.31
52975;BME280;38839;45.186;5.720;2023-03-13T13:03:51;98205.78;;;23.34;33.87
52975;BME280;38839;45.186;5.720;2023-03-13T13:06:17;98194.06;;;23.37;34.03
52975;BME280;38839;45.186;5.720;2023-03-13T13:13:57;98165.28;;;23.42;33.73
52975;BME280;38839;45.186;5.720;2023-03-13T13:16:24;98158.38;;;23.39;33.17
52975;BME280;38839;45.186;5.720;2023-03-13T13:18:50;98150.44;;;23.26;33.61
52975;BME280;38839;45.186;5.720;2023-03-13T13:23:44;98135.53;;;23.24;33.43
52975;BME280;38839;45.186;5.720;2023-03-13T13:29:50;98132.31;;;23.32;33.02
52975;BME280;38839;45.186;5.720;2023-03-13T13:37:22;98110.22;;;23.18;33.34
52975;BME280;38839;45.186;5.720;2023-03-13T13:39:52;98089.13;;;23.15;33.28
52975;BME280;38839;45.186;5.720;2023-03-13T13:45:00;98073.25;;;23.26;32.94
52975;BME280;38839;45.186;5.720;2023-03-13T13:47:28;98065.72;;;23.20;32.50
52975;BME280;38839;45.186;5.720;2023-03-13T13:49:58;98075.91;;;23.26;32.80
52975;BME280;38839;45.186;5.720;2023-03-13T13:52:36;98064.00;;;23.32;32.51
52975;BME280;38839;45.186;5.720;2023-03-13T13:57:57;98056.91;;;23.44;32.64
52975;BME280;38839;45.186;5.720;2023-03-13T14:00:28;98053.94;;;23.36;32.37
52975;BME280;38839;45.186;5.720;2023-03-13T14:02:59;98063.53;;;23.38;32.53
52975;BME280;38839;45.186;5.720;2023-03-13T14:05:29;98053.91;;;23.48;32.51
52975;BME280;38839;45.186;5.720;2023-03-13T14:08:03;98046.22;;;23.57;32.72
52975;BME280;38839;45.186;5.720;2023-03-13T14:10:40;98068.53;;;23.67;32.67
52975;BME280;38839;45.186;5.720;2023-03-13T14:13:15;98047.22;;;23.67;32.77
52975;BME280;38839;45.186;5.720;2023-03-13T14:15:49;98053.41;;;23.67;33.11
52975;BME280;38839;45.186;5.720;2023-03-13T14:23:39;98042.41;;;23.72;33.14
52975;BME280;38839;45.186;5.720;2023-03-13T14:28:47;98054.44;;;23.78;33.55
52975;BME280;38839;45.186;5.720;2023-03-13T14:31:28;98048.56;;;23.73;33.73
52975;BME280;38839;45.186;5.720;2023-03-13T14:33:55;98049.03;;;23.66;33.76
52975;BME280;38839;45.186;5.720;2023-03-13T14:36:21;98049.75;;;23.68;33.69
52975;BME280;38839;45.186;5.720;2023-03-13T14:38:54;98035.72;;;23.66;33.45
52975;BME280;38839;45.186;5.720;2023-03-13T14:41:41;98023.44;;;23.53;33.23
52975;BME280;38839;45.186;5.720;2023-03-13T14:44:26;98017.25;;;23.52;33.25